<?xml version="1.0" encoding="utf-8"?>
<gpx xmlns:xsi="http://www.w3.org/2001/XMLSchema-instance" xmlns:xsd="http://www.w3.org/2001/XMLSchema" version="1.1" creator="Shapelink.com" xmlns="http://www.topografix.com/GPX/1/1" xmlns:gpxtpx="http://www.garmin.com/xmlschemas/TrackPointExtension/v1">
  <metadata>
    <name>Cycling 11.24 km, 2020-06-25</name>
    <desc></desc>
    <author><name>Marian Moron</name></author> 
    <time>2020-06-25T19:05:07Z</time>
  </metadata>
  <trk>
    <name>Cycling 11.24 km, 2020-06-25</name>
    <trkseg>
      <trkpt lat="51.228643438526" lon="4.449488280577">
        <ele>5.4</ele>
        <time>2020-06-25T19:05:07Z</time>
      </trkpt>
      <trkpt lat="51.228697334143" lon="4.449321313129">
        <ele>1.6</ele>
        <time>2020-06-25T19:05:11Z</time>
      </trkpt>
      <trkpt lat="51.228641343051" lon="4.449309997564">
        <ele>2.2</ele>
        <time>2020-06-25T19:05:14Z</time>
      </trkpt>
      <trkpt lat="51.228607647813" lon="4.449453076597">
        <ele>0</ele>
        <time>2020-06-25T19:05:23Z</time>
      </trkpt>
      <trkpt lat="51.228725329689" lon="4.449164739237">
        <ele>0</ele>
        <time>2020-06-25T19:05:32Z</time>
      </trkpt>
      <trkpt lat="51.228700854541" lon="4.449133139474">
        <ele>0</ele>
        <time>2020-06-25T19:05:34Z</time>
      </trkpt>
      <trkpt lat="51.228677385221" lon="4.449149651817">
        <ele>0</ele>
        <time>2020-06-25T19:05:36Z</time>
      </trkpt>
      <trkpt lat="51.228626004174" lon="4.449375460203">
        <ele>0</ele>
        <time>2020-06-25T19:05:48Z</time>
      </trkpt>
      <trkpt lat="51.228987180245" lon="4.448734915405">
        <ele>0</ele>
        <time>2020-06-25T19:06:13Z</time>
      </trkpt>
      <trkpt lat="51.22880487392" lon="4.448223032772">
        <ele>0</ele>
        <time>2020-06-25T19:06:27Z</time>
      </trkpt>
      <trkpt lat="51.228823230281" lon="4.44821062756">
        <ele>0</ele>
        <time>2020-06-25T19:06:29Z</time>
      </trkpt>
      <trkpt lat="51.228848711257" lon="4.448221440211">
        <ele>0</ele>
        <time>2020-06-25T19:06:33Z</time>
      </trkpt>
      <trkpt lat="51.228484014788" lon="4.447563880156">
        <ele>0.2</ele>
        <time>2020-06-25T19:06:51Z</time>
      </trkpt>
      <trkpt lat="51.228254518366" lon="4.447366654049">
        <ele>0.2</ele>
        <time>2020-06-25T19:07:04Z</time>
      </trkpt>
      <trkpt lat="51.228201460939" lon="4.447338407046">
        <ele>0.2</ele>
        <time>2020-06-25T19:07:07Z</time>
      </trkpt>
      <trkpt lat="51.227815390625" lon="4.447977024007">
        <ele>3.2</ele>
        <time>2020-06-25T19:07:30Z</time>
      </trkpt>
      <trkpt lat="51.227336113583" lon="4.44844448257">
        <ele>2.6</ele>
        <time>2020-06-25T19:07:50Z</time>
      </trkpt>
      <trkpt lat="51.226988097095" lon="4.449080836418">
        <ele>6</ele>
        <time>2020-06-25T19:08:12Z</time>
      </trkpt>
      <trkpt lat="51.226939146799" lon="4.449168343454">
        <ele>6.4</ele>
        <time>2020-06-25T19:08:15Z</time>
      </trkpt>
      <trkpt lat="51.226564643507" lon="4.449391218175">
        <ele>7</ele>
        <time>2020-06-25T19:08:29Z</time>
      </trkpt>
      <trkpt lat="51.226546370965" lon="4.449359199317">
        <ele>7</ele>
        <time>2020-06-25T19:08:31Z</time>
      </trkpt>
      <trkpt lat="51.226283514581" lon="4.44894152924">
        <ele>5.6</ele>
        <time>2020-06-25T19:08:44Z</time>
      </trkpt>
      <trkpt lat="51.225912531687" lon="4.449586348807">
        <ele>3.8</ele>
        <time>2020-06-25T19:09:03Z</time>
      </trkpt>
      <trkpt lat="51.225384807263" lon="4.449759351223">
        <ele>3</ele>
        <time>2020-06-25T19:09:23Z</time>
      </trkpt>
      <trkpt lat="51.224891783905" lon="4.450086664418">
        <ele>1.2</ele>
        <time>2020-06-25T19:09:40Z</time>
      </trkpt>
      <trkpt lat="51.224480567891" lon="4.450716648022">
        <ele>0</ele>
        <time>2020-06-25T19:09:55Z</time>
      </trkpt>
      <trkpt lat="51.224076141216" lon="4.451348056549">
        <ele>0</ele>
        <time>2020-06-25T19:10:12Z</time>
      </trkpt>
      <trkpt lat="51.22354942262" lon="4.451323497582">
        <ele>0</ele>
        <time>2020-06-25T19:10:30Z</time>
      </trkpt>
      <trkpt lat="51.223017088151" lon="4.4511409398">
        <ele>0</ele>
        <time>2020-06-25T19:10:48Z</time>
      </trkpt>
      <trkpt lat="51.222472097013" lon="4.451111938426">
        <ele>0</ele>
        <time>2020-06-25T19:11:06Z</time>
      </trkpt>
      <trkpt lat="51.221941019829" lon="4.451311679103">
        <ele>0</ele>
        <time>2020-06-25T19:11:24Z</time>
      </trkpt>
      <trkpt lat="51.221427041721" lon="4.451541343163">
        <ele>0</ele>
        <time>2020-06-25T19:11:45Z</time>
      </trkpt>
      <trkpt lat="51.22089319851" lon="4.451673441907">
        <ele>0</ele>
        <time>2020-06-25T19:12:02Z</time>
      </trkpt>
      <trkpt lat="51.220356170177" lon="4.451786849014">
        <ele>0</ele>
        <time>2020-06-25T19:12:19Z</time>
      </trkpt>
      <trkpt lat="51.219811262858" lon="4.451883743778">
        <ele>0</ele>
        <time>2020-06-25T19:12:35Z</time>
      </trkpt>
      <trkpt lat="51.219272558145" lon="4.45203612672">
        <ele>0</ele>
        <time>2020-06-25T19:12:48Z</time>
      </trkpt>
      <trkpt lat="51.219075751133" lon="4.452012154486">
        <ele>0</ele>
        <time>2020-06-25T19:12:53Z</time>
      </trkpt>
      <trkpt lat="51.218937114507" lon="4.451818867872">
        <ele>0</ele>
        <time>2020-06-25T19:12:57Z</time>
      </trkpt>
      <trkpt lat="51.218844243055" lon="4.45175030393">
        <ele>0</ele>
        <time>2020-06-25T19:12:59Z</time>
      </trkpt>
      <trkpt lat="51.218554899867" lon="4.451675788839">
        <ele>0</ele>
        <time>2020-06-25T19:13:05Z</time>
      </trkpt>
      <trkpt lat="51.218238315504" lon="4.452346173201">
        <ele>0</ele>
        <time>2020-06-25T19:13:19Z</time>
      </trkpt>
      <trkpt lat="51.218189449027" lon="4.453234151687">
        <ele>0</ele>
        <time>2020-06-25T19:13:34Z</time>
      </trkpt>
      <trkpt lat="51.218162878404" lon="4.454098660853">
        <ele>1.8</ele>
        <time>2020-06-25T19:13:49Z</time>
      </trkpt>
      <trkpt lat="51.2181615373" lon="4.45495805706">
        <ele>3.2</ele>
        <time>2020-06-25T19:14:08Z</time>
      </trkpt>
      <trkpt lat="51.218108396054" lon="4.455844610623">
        <ele>5</ele>
        <time>2020-06-25T19:14:28Z</time>
      </trkpt>
      <trkpt lat="51.218056092998" lon="4.45673753443">
        <ele>2.6</ele>
        <time>2020-06-25T19:14:44Z</time>
      </trkpt>
      <trkpt lat="51.218011668928" lon="4.457625848192">
        <ele>7.4</ele>
        <time>2020-06-25T19:15:01Z</time>
      </trkpt>
      <trkpt lat="51.217988283427" lon="4.458508294624">
        <ele>5.8</ele>
        <time>2020-06-25T19:15:19Z</time>
      </trkpt>
      <trkpt lat="51.217955091103" lon="4.459398955318">
        <ele>3</ele>
        <time>2020-06-25T19:15:39Z</time>
      </trkpt>
      <trkpt lat="51.217886108066" lon="4.460255501679">
        <ele>4.6</ele>
        <time>2020-06-25T19:15:56Z</time>
      </trkpt>
      <trkpt lat="51.217836403399" lon="4.461135349722">
        <ele>3</ele>
        <time>2020-06-25T19:16:14Z</time>
      </trkpt>
      <trkpt lat="51.217808826948" lon="4.462029949909">
        <ele>0.2</ele>
        <time>2020-06-25T19:16:33Z</time>
      </trkpt>
      <trkpt lat="51.217778400651" lon="4.462912899255">
        <ele>1.4</ele>
        <time>2020-06-25T19:16:50Z</time>
      </trkpt>
      <trkpt lat="51.217726181414" lon="4.463803140854">
        <ele>1.8</ele>
        <time>2020-06-25T19:17:09Z</time>
      </trkpt>
      <trkpt lat="51.217699610791" lon="4.464692125168">
        <ele>1.8</ele>
        <time>2020-06-25T19:17:28Z</time>
      </trkpt>
      <trkpt lat="51.217658958576" lon="4.465556215239">
        <ele>0</ele>
        <time>2020-06-25T19:17:45Z</time>
      </trkpt>
      <trkpt lat="51.217617803447" lon="4.46643203997">
        <ele>1.8</ele>
        <time>2020-06-25T19:18:04Z</time>
      </trkpt>
      <trkpt lat="51.217569523703" lon="4.467286239399">
        <ele>3.2</ele>
        <time>2020-06-25T19:18:25Z</time>
      </trkpt>
      <trkpt lat="51.217546557297" lon="4.468159968655">
        <ele>3.8</ele>
        <time>2020-06-25T19:18:50Z</time>
      </trkpt>
      <trkpt lat="51.21751361643" lon="4.469028417314">
        <ele>2</ele>
        <time>2020-06-25T19:19:10Z</time>
      </trkpt>
      <trkpt lat="51.217489392739" lon="4.469915892886">
        <ele>2.2</ele>
        <time>2020-06-25T19:19:32Z</time>
      </trkpt>
      <trkpt lat="51.217433401647" lon="4.47079984806">
        <ele>2.2</ele>
        <time>2020-06-25T19:19:54Z</time>
      </trkpt>
      <trkpt lat="51.217403645902" lon="4.471668548176">
        <ele>1.2</ele>
        <time>2020-06-25T19:20:22Z</time>
      </trkpt>
      <trkpt lat="51.217371543225" lon="4.472552754807">
        <ele>3.8</ele>
        <time>2020-06-25T19:20:46Z</time>
      </trkpt>
      <trkpt lat="51.217311277364" lon="4.473434865963">
        <ele>1.6</ele>
        <time>2020-06-25T19:21:09Z</time>
      </trkpt>
      <trkpt lat="51.217281521619" lon="4.474324939924">
        <ele>4.2</ele>
        <time>2020-06-25T19:21:27Z</time>
      </trkpt>
      <trkpt lat="51.217230727305" lon="4.475223060509">
        <ele>3.4</ele>
        <time>2020-06-25T19:21:51Z</time>
      </trkpt>
      <trkpt lat="51.217264171086" lon="4.475914902535">
        <ele>1.2</ele>
        <time>2020-06-25T19:22:06Z</time>
      </trkpt>
      <trkpt lat="51.217198959904" lon="4.476809502722">
        <ele>0</ele>
        <time>2020-06-25T19:22:26Z</time>
      </trkpt>
      <trkpt lat="51.217148668504" lon="4.47766462416">
        <ele>0.8</ele>
        <time>2020-06-25T19:22:48Z</time>
      </trkpt>
      <trkpt lat="51.21710374152" lon="4.478544472203">
        <ele>0</ele>
        <time>2020-06-25T19:23:13Z</time>
      </trkpt>
      <trkpt lat="51.217072309395" lon="4.47942063221">
        <ele>0</ele>
        <time>2020-06-25T19:23:38Z</time>
      </trkpt>
      <trkpt lat="51.217044816763" lon="4.480276172743">
        <ele>0.6</ele>
        <time>2020-06-25T19:23:59Z</time>
      </trkpt>
      <trkpt lat="51.216992094612" lon="4.481150321094">
        <ele>1.8</ele>
        <time>2020-06-25T19:24:21Z</time>
      </trkpt>
      <trkpt lat="51.216984299445" lon="4.481807294416">
        <ele>1.4</ele>
        <time>2020-06-25T19:24:38Z</time>
      </trkpt>
      <trkpt lat="51.216446768198" lon="4.481983565773">
        <ele>1.2</ele>
        <time>2020-06-25T19:24:59Z</time>
      </trkpt>
      <trkpt lat="51.215905465096" lon="4.481984236325">
        <ele>1.2</ele>
        <time>2020-06-25T19:25:18Z</time>
      </trkpt>
      <trkpt lat="51.215332394593" lon="4.481867895553">
        <ele>0.8</ele>
        <time>2020-06-25T19:25:34Z</time>
      </trkpt>
      <trkpt lat="51.214935260171" lon="4.481686343599">
        <ele>0.8</ele>
        <time>2020-06-25T19:25:44Z</time>
      </trkpt>
      <trkpt lat="51.21486158327" lon="4.481672094369">
        <ele>0.4</ele>
        <time>2020-06-25T19:25:46Z</time>
      </trkpt>
      <trkpt lat="51.214804670169" lon="4.481615348906">
        <ele>0.4</ele>
        <time>2020-06-25T19:25:48Z</time>
      </trkpt>
      <trkpt lat="51.214283315989" lon="4.481279905268">
        <ele>0.2</ele>
        <time>2020-06-25T19:26:04Z</time>
      </trkpt>
      <trkpt lat="51.213786939871" lon="4.480854356205">
        <ele>0.8</ele>
        <time>2020-06-25T19:26:22Z</time>
      </trkpt>
      <trkpt lat="51.213293581237" lon="4.480475494325">
        <ele>0.8</ele>
        <time>2020-06-25T19:26:39Z</time>
      </trkpt>
      <trkpt lat="51.212941373799" lon="4.480165447844">
        <ele>1</ele>
        <time>2020-06-25T19:26:52Z</time>
      </trkpt>
      <trkpt lat="51.212932824261" lon="4.48007861136">
        <ele>0.8</ele>
        <time>2020-06-25T19:26:54Z</time>
      </trkpt>
      <trkpt lat="51.213241362" lon="4.47933178407">
        <ele>1.6</ele>
        <time>2020-06-25T19:27:12Z</time>
      </trkpt>
      <trkpt lat="51.213459710495" lon="4.478509938775">
        <ele>0</ele>
        <time>2020-06-25T19:27:33Z</time>
      </trkpt>
      <trkpt lat="51.213946782704" lon="4.478176171517">
        <ele>0</ele>
        <time>2020-06-25T19:27:53Z</time>
      </trkpt>
      <trkpt lat="51.214109140107" lon="4.477733691016">
        <ele>0</ele>
        <time>2020-06-25T19:28:06Z</time>
      </trkpt>
      <trkpt lat="51.213743270172" lon="4.477113011321">
        <ele>0</ele>
        <time>2020-06-25T19:28:29Z</time>
      </trkpt>
      <trkpt lat="51.21359507818" lon="4.476243389196">
        <ele>0</ele>
        <time>2020-06-25T19:28:47Z</time>
      </trkpt>
      <trkpt lat="51.21347521701" lon="4.475371001044">
        <ele>0</ele>
        <time>2020-06-25T19:29:04Z</time>
      </trkpt>
      <trkpt lat="51.213336664203" lon="4.474513784131">
        <ele>0</ele>
        <time>2020-06-25T19:29:22Z</time>
      </trkpt>
      <trkpt lat="51.213244128027" lon="4.474301889699">
        <ele>0</ele>
        <time>2020-06-25T19:29:27Z</time>
      </trkpt>
      <trkpt lat="51.213260137456" lon="4.474226620237">
        <ele>0</ele>
        <time>2020-06-25T19:29:29Z</time>
      </trkpt>
      <trkpt lat="51.213275476333" lon="4.474340865534">
        <ele>0</ele>
        <time>2020-06-25T19:29:33Z</time>
      </trkpt>
      <trkpt lat="51.213254102488" lon="4.4743504209">
        <ele>0</ele>
        <time>2020-06-25T19:29:34Z</time>
      </trkpt>
      <trkpt lat="51.21301253613" lon="4.473589009104">
        <ele>0</ele>
        <time>2020-06-25T19:29:50Z</time>
      </trkpt>
      <trkpt lat="51.212778764939" lon="4.472808235119">
        <ele>5.8</ele>
        <time>2020-06-25T19:30:06Z</time>
      </trkpt>
      <trkpt lat="51.212429239709" lon="4.472134917092">
        <ele>3</ele>
        <time>2020-06-25T19:30:21Z</time>
      </trkpt>
      <trkpt lat="51.212060519928" lon="4.471498563244">
        <ele>6</ele>
        <time>2020-06-25T19:30:39Z</time>
      </trkpt>
      <trkpt lat="51.211766734333" lon="4.470768164478">
        <ele>7.4</ele>
        <time>2020-06-25T19:31:00Z</time>
      </trkpt>
      <trkpt lat="51.211503291216" lon="4.469582293266">
        <ele>0</ele>
        <time>2020-06-25T19:31:31Z</time>
      </trkpt>
      <trkpt lat="51.211483593751" lon="4.468701187938">
        <ele>0</ele>
        <time>2020-06-25T19:31:52Z</time>
      </trkpt>
      <trkpt lat="51.211527431088" lon="4.467826620492">
        <ele>0</ele>
        <time>2020-06-25T19:32:11Z</time>
      </trkpt>
      <trkpt lat="51.211603287283" lon="4.466955992539">
        <ele>0</ele>
        <time>2020-06-25T19:32:30Z</time>
      </trkpt>
      <trkpt lat="51.211549307847" lon="4.466102966576">
        <ele>0</ele>
        <time>2020-06-25T19:32:50Z</time>
      </trkpt>
      <trkpt lat="51.211794226965" lon="4.465395115121">
        <ele>0</ele>
        <time>2020-06-25T19:33:11Z</time>
      </trkpt>
      <trkpt lat="51.212327399624" lon="4.465360916969">
        <ele>0</ele>
        <time>2020-06-25T19:33:32Z</time>
      </trkpt>
      <trkpt lat="51.212706345323" lon="4.465175509341">
        <ele>0</ele>
        <time>2020-06-25T19:33:46Z</time>
      </trkpt>
      <trkpt lat="51.213231471358" lon="4.465432163119">
        <ele>0</ele>
        <time>2020-06-25T19:34:11Z</time>
      </trkpt>
      <trkpt lat="51.213308165743" lon="4.465448759281">
        <ele>0</ele>
        <time>2020-06-25T19:34:19Z</time>
      </trkpt>
      <trkpt lat="51.213336496565" lon="4.465450351842">
        <ele>0</ele>
        <time>2020-06-25T19:34:22Z</time>
      </trkpt>
      <trkpt lat="51.213392906752" lon="4.465436773164">
        <ele>1.4</ele>
        <time>2020-06-25T19:35:28Z</time>
      </trkpt>
      <trkpt lat="51.213403551765" lon="4.465439874467">
        <ele>1.4</ele>
        <time>2020-06-25T19:35:29Z</time>
      </trkpt>
      <trkpt lat="51.213923061927" lon="4.465232338623">
        <ele>0</ele>
        <time>2020-06-25T19:35:58Z</time>
      </trkpt>
      <trkpt lat="51.214450618713" lon="4.465031508299">
        <ele>0</ele>
        <time>2020-06-25T19:36:20Z</time>
      </trkpt>
      <trkpt lat="51.214946156641" lon="4.464705871484">
        <ele>0</ele>
        <time>2020-06-25T19:36:38Z</time>
      </trkpt>
      <trkpt lat="51.215416800326" lon="4.464239083473">
        <ele>0</ele>
        <time>2020-06-25T19:36:55Z</time>
      </trkpt>
      <trkpt lat="51.215790213971" lon="4.464138333035">
        <ele>0</ele>
        <time>2020-06-25T19:37:12Z</time>
      </trkpt>
      <trkpt lat="51.215819299164" lon="4.464201029647">
        <ele>0</ele>
        <time>2020-06-25T19:37:34Z</time>
      </trkpt>
      <trkpt lat="51.216008981561" lon="4.465044919339">
        <ele>0</ele>
        <time>2020-06-25T19:37:54Z</time>
      </trkpt>
      <trkpt lat="51.216040832781" lon="4.465299812918">
        <ele>0</ele>
        <time>2020-06-25T19:37:58Z</time>
      </trkpt>
      <trkpt lat="51.216082155548" lon="4.465419590269">
        <ele>0</ele>
        <time>2020-06-25T19:38:00Z</time>
      </trkpt>
      <trkpt lat="51.216125322333" lon="4.465536433955">
        <ele>0</ele>
        <time>2020-06-25T19:38:02Z</time>
      </trkpt>
      <trkpt lat="51.216129094188" lon="4.465661575722">
        <ele>0</ele>
        <time>2020-06-25T19:38:04Z</time>
      </trkpt>
      <trkpt lat="51.215801026622" lon="4.465937256413">
        <ele>0</ele>
        <time>2020-06-25T19:38:16Z</time>
      </trkpt>
      <trkpt lat="51.215819131526" lon="4.466010095124">
        <ele>0</ele>
        <time>2020-06-25T19:38:18Z</time>
      </trkpt>
      <trkpt lat="51.216212074998" lon="4.466616860865">
        <ele>0</ele>
        <time>2020-06-25T19:38:40Z</time>
      </trkpt>
      <trkpt lat="51.216608035954" lon="4.467225722081">
        <ele>0</ele>
        <time>2020-06-25T19:39:00Z</time>
      </trkpt>
      <trkpt lat="51.217033165922" lon="4.467795020729">
        <ele>0</ele>
        <time>2020-06-25T19:39:18Z</time>
      </trkpt>
      <trkpt lat="51.217474053862" lon="4.468339676591">
        <ele>0</ele>
        <time>2020-06-25T19:39:37Z</time>
      </trkpt>
      <trkpt lat="51.217564662201" lon="4.469006037641">
        <ele>0</ele>
        <time>2020-06-25T19:39:52Z</time>
      </trkpt>
      <trkpt lat="51.217835313752" lon="4.469153391443">
        <ele>0</ele>
        <time>2020-06-25T19:40:14Z</time>
      </trkpt>
      <trkpt lat="51.2178849346" lon="4.469181722265">
        <ele>0</ele>
        <time>2020-06-25T19:40:17Z</time>
      </trkpt>
      <trkpt lat="51.218041005578" lon="4.46946796415">
        <ele>0</ele>
        <time>2020-06-25T19:40:32Z</time>
      </trkpt>
      <trkpt lat="51.218050309487" lon="4.469445919753">
        <ele>0</ele>
        <time>2020-06-25T19:40:42Z</time>
      </trkpt>
      <trkpt lat="51.218204620266" lon="4.469431754342">
        <ele>0</ele>
        <time>2020-06-25T19:40:55Z</time>
      </trkpt>
      <trkpt lat="51.218118370515" lon="4.470269776704">
        <ele>0</ele>
        <time>2020-06-25T19:41:17Z</time>
      </trkpt>
      <trkpt lat="51.217714865849" lon="4.470632042422">
        <ele>0</ele>
        <time>2020-06-25T19:41:35Z</time>
      </trkpt>
      <trkpt lat="51.217709333795" lon="4.470690715722">
        <ele>0</ele>
        <time>2020-06-25T19:41:37Z</time>
      </trkpt>
      <trkpt lat="51.217962634813" lon="4.471466795843">
        <ele>0</ele>
        <time>2020-06-25T19:42:00Z</time>
      </trkpt>
      <trkpt lat="51.218103618371" lon="4.471646922874">
        <ele>0</ele>
        <time>2020-06-25T19:42:07Z</time>
      </trkpt>
      <trkpt lat="51.21852028262" lon="4.471137722449">
        <ele>1.4</ele>
        <time>2020-06-25T19:42:30Z</time>
      </trkpt>
      <trkpt lat="51.219048929053" lon="4.470943932921">
        <ele>3.6</ele>
        <time>2020-06-25T19:42:53Z</time>
      </trkpt>
      <trkpt lat="51.219309103229" lon="4.470170870284">
        <ele>0</ele>
        <time>2020-06-25T19:43:19Z</time>
      </trkpt>
      <trkpt lat="51.219487972975" lon="4.46936151402">
        <ele>0</ele>
        <time>2020-06-25T19:43:40Z</time>
      </trkpt>
      <trkpt lat="51.219550082854" lon="4.4689692411">
        <ele>0</ele>
        <time>2020-06-25T19:43:52Z</time>
      </trkpt>
      <trkpt lat="51.218990423391" lon="4.468886427928">
        <ele>2.4</ele>
        <time>2020-06-25T19:44:11Z</time>
      </trkpt>
      <trkpt lat="51.21857644135" lon="4.468529945721">
        <ele>0</ele>
        <time>2020-06-25T19:44:32Z</time>
      </trkpt>
      <trkpt lat="51.218557665894" lon="4.468467500566">
        <ele>0</ele>
        <time>2020-06-25T19:44:34Z</time>
      </trkpt>
      <trkpt lat="51.218497232395" lon="4.468438247735">
        <ele>0.8</ele>
        <time>2020-06-25T19:44:36Z</time>
      </trkpt>
      <trkpt lat="51.217940841873" lon="4.468362559178">
        <ele>0</ele>
        <time>2020-06-25T19:44:54Z</time>
      </trkpt>
      <trkpt lat="51.217676644385" lon="4.468178073559">
        <ele>0</ele>
        <time>2020-06-25T19:45:06Z</time>
      </trkpt>
      <trkpt lat="51.217698940239" lon="4.46737500372">
        <ele>0</ele>
        <time>2020-06-25T19:45:29Z</time>
      </trkpt>
      <trkpt lat="51.217738167531" lon="4.46648316956">
        <ele>0</ele>
        <time>2020-06-25T19:45:49Z</time>
      </trkpt>
      <trkpt lat="51.217796421736" lon="4.465557975438">
        <ele>0</ele>
        <time>2020-06-25T19:46:09Z</time>
      </trkpt>
      <trkpt lat="51.21779524827" lon="4.464677205386">
        <ele>0</ele>
        <time>2020-06-25T19:46:24Z</time>
      </trkpt>
      <trkpt lat="51.217783178334" lon="4.464579723889">
        <ele>0</ele>
        <time>2020-06-25T19:46:26Z</time>
      </trkpt>
      <trkpt lat="51.217798349573" lon="4.464499257649">
        <ele>0</ele>
        <time>2020-06-25T19:46:29Z</time>
      </trkpt>
      <trkpt lat="51.217889460826" lon="4.463633994112">
        <ele>0</ele>
        <time>2020-06-25T19:46:52Z</time>
      </trkpt>
      <trkpt lat="51.217937824389" lon="4.462764371987">
        <ele>0</ele>
        <time>2020-06-25T19:47:10Z</time>
      </trkpt>
      <trkpt lat="51.217928017566" lon="4.462399424061">
        <ele>0</ele>
        <time>2020-06-25T19:47:19Z</time>
      </trkpt>
      <trkpt lat="51.217892143034" lon="4.462325495703">
        <ele>0</ele>
        <time>2020-06-25T19:47:30Z</time>
      </trkpt>
      <trkpt lat="51.217928101385" lon="4.461458555786">
        <ele>0</ele>
        <time>2020-06-25T19:47:48Z</time>
      </trkpt>
      <trkpt lat="51.217927514652" lon="4.461453778103">
        <ele>0</ele>
        <time>2020-06-25T19:47:50Z</time>
      </trkpt>
      <trkpt lat="51.217915863811" lon="4.461446402031">
        <ele>0</ele>
        <time>2020-06-25T19:47:54Z</time>
      </trkpt>
      <trkpt lat="51.217908990653" lon="4.461411114232">
        <ele>0</ele>
        <time>2020-06-25T19:47:59Z</time>
      </trkpt>
      <trkpt lat="51.217994402214" lon="4.460543671401">
        <ele>0</ele>
        <time>2020-06-25T19:48:21Z</time>
      </trkpt>
      <trkpt lat="51.218081993069" lon="4.459649155033">
        <ele>0</ele>
        <time>2020-06-25T19:48:41Z</time>
      </trkpt>
      <trkpt lat="51.21817411015" lon="4.458757823787">
        <ele>0</ele>
        <time>2020-06-25T19:48:58Z</time>
      </trkpt>
      <trkpt lat="51.218201267506" lon="4.457832545846">
        <ele>0</ele>
        <time>2020-06-25T19:49:15Z</time>
      </trkpt>
      <trkpt lat="51.218460016759" lon="4.456946076102">
        <ele>0</ele>
        <time>2020-06-25T19:49:34Z</time>
      </trkpt>
      <trkpt lat="51.218869556393" lon="4.456317685059">
        <ele>0</ele>
        <time>2020-06-25T19:49:54Z</time>
      </trkpt>
      <trkpt lat="51.21935009072" lon="4.455854752722">
        <ele>0.8</ele>
        <time>2020-06-25T19:50:13Z</time>
      </trkpt>
      <trkpt lat="51.219868762692" lon="4.455528948269">
        <ele>0</ele>
        <time>2020-06-25T19:50:32Z</time>
      </trkpt>
      <trkpt lat="51.219902374111" lon="4.455402800674">
        <ele>0</ele>
        <time>2020-06-25T19:50:38Z</time>
      </trkpt>
      <trkpt lat="51.219599955159" lon="4.454666115483">
        <ele>4.4</ele>
        <time>2020-06-25T19:50:55Z</time>
      </trkpt>
      <trkpt lat="51.219391078211" lon="4.453869080612">
        <ele>0</ele>
        <time>2020-06-25T19:51:15Z</time>
      </trkpt>
      <trkpt lat="51.219372889488" lon="4.453855166658">
        <ele>0</ele>
        <time>2020-06-25T19:51:16Z</time>
      </trkpt>
      <trkpt lat="51.219341289725" lon="4.453863632377">
        <ele>0</ele>
        <time>2020-06-25T19:51:18Z</time>
      </trkpt>
      <trkpt lat="51.219282029692" lon="4.453968406127">
        <ele>0</ele>
        <time>2020-06-25T19:51:23Z</time>
      </trkpt>
      <trkpt lat="51.219168119671" lon="4.454061109941">
        <ele>0</ele>
        <time>2020-06-25T19:51:31Z</time>
      </trkpt>
      <trkpt lat="51.219133250967" lon="4.454048704729">
        <ele>0</ele>
        <time>2020-06-25T19:51:33Z</time>
      </trkpt>
      <trkpt lat="51.21886813147" lon="4.453287879666">
        <ele>0</ele>
        <time>2020-06-25T19:51:57Z</time>
      </trkpt>
      <trkpt lat="51.218728405197" lon="4.452995267537">
        <ele>0</ele>
        <time>2020-06-25T19:52:05Z</time>
      </trkpt>
      <trkpt lat="51.21867953872" lon="4.453002978885">
        <ele>0</ele>
        <time>2020-06-25T19:52:07Z</time>
      </trkpt>
      <trkpt lat="51.218597899014" lon="4.453110602481">
        <ele>0</ele>
        <time>2020-06-25T19:52:12Z</time>
      </trkpt>
      <trkpt lat="51.218275363502" lon="4.453607565332">
        <ele>0</ele>
        <time>2020-06-25T19:52:30Z</time>
      </trkpt>
      <trkpt lat="51.218242171178" lon="4.453563979452">
        <ele>0</ele>
        <time>2020-06-25T19:52:32Z</time>
      </trkpt>
      <trkpt lat="51.218311154215" lon="4.452671558559">
        <ele>0</ele>
        <time>2020-06-25T19:52:50Z</time>
      </trkpt>
      <trkpt lat="51.218422633485" lon="4.451857340793">
        <ele>0</ele>
        <time>2020-06-25T19:53:06Z</time>
      </trkpt>
      <trkpt lat="51.218463956252" lon="4.451831859817">
        <ele>0</ele>
        <time>2020-06-25T19:53:07Z</time>
      </trkpt>
      <trkpt lat="51.218560264283" lon="4.45180981542">
        <ele>0</ele>
        <time>2020-06-25T19:53:09Z</time>
      </trkpt>
      <trkpt lat="51.218799818985" lon="4.451811827076">
        <ele>0</ele>
        <time>2020-06-25T19:53:14Z</time>
      </trkpt>
      <trkpt lat="51.219299128768" lon="4.452097733685">
        <ele>0</ele>
        <time>2020-06-25T19:53:36Z</time>
      </trkpt>
      <trkpt lat="51.219856441299" lon="4.451986002958">
        <ele>0</ele>
        <time>2020-06-25T19:53:56Z</time>
      </trkpt>
      <trkpt lat="51.220401097161" lon="4.451945769838">
        <ele>0</ele>
        <time>2020-06-25T19:54:11Z</time>
      </trkpt>
      <trkpt lat="51.220957487683" lon="4.451813251999">
        <ele>0</ele>
        <time>2020-06-25T19:54:27Z</time>
      </trkpt>
      <trkpt lat="51.221525696684" lon="4.451634382253">
        <ele>0</ele>
        <time>2020-06-25T19:54:45Z</time>
      </trkpt>
      <trkpt lat="51.221974966524" lon="4.451326766523">
        <ele>0</ele>
        <time>2020-06-25T19:54:55Z</time>
      </trkpt>
      <trkpt lat="51.222510989029" lon="4.451110932598">
        <ele>0</ele>
        <time>2020-06-25T19:55:09Z</time>
      </trkpt>
      <trkpt lat="51.223072911605" lon="4.451130630063">
        <ele>0</ele>
        <time>2020-06-25T19:55:26Z</time>
      </trkpt>
      <trkpt lat="51.223636259104" lon="4.451296591683">
        <ele>0.6</ele>
        <time>2020-06-25T19:55:42Z</time>
      </trkpt>
      <trkpt lat="51.223884195706" lon="4.451361299951">
        <ele>1</ele>
        <time>2020-06-25T19:55:48Z</time>
      </trkpt>
      <trkpt lat="51.223966422145" lon="4.451346966902">
        <ele>1</ele>
        <time>2020-06-25T19:55:50Z</time>
      </trkpt>
      <trkpt lat="51.224417955098" lon="4.450858972684">
        <ele>0</ele>
        <time>2020-06-25T19:56:05Z</time>
      </trkpt>
      <trkpt lat="51.224733114538" lon="4.450367541887">
        <ele>0</ele>
        <time>2020-06-25T19:56:17Z</time>
      </trkpt>
      <trkpt lat="51.22515958561" lon="4.449825316776">
        <ele>1</ele>
        <time>2020-06-25T19:56:33Z</time>
      </trkpt>
      <trkpt lat="51.225700804893" lon="4.449693720946">
        <ele>1.2</ele>
        <time>2020-06-25T19:56:49Z</time>
      </trkpt>
      <trkpt lat="51.226153595131" lon="4.449226178564">
        <ele>1.6</ele>
        <time>2020-06-25T19:57:05Z</time>
      </trkpt>
      <trkpt lat="51.226410081271" lon="4.448424533648">
        <ele>2.4</ele>
        <time>2020-06-25T19:57:21Z</time>
      </trkpt>
      <trkpt lat="51.226784500744" lon="4.447770493991">
        <ele>1.6</ele>
        <time>2020-06-25T19:57:39Z</time>
      </trkpt>
      <trkpt lat="51.22719974007" lon="4.447165320811">
        <ele>1.2</ele>
        <time>2020-06-25T19:57:56Z</time>
      </trkpt>
      <trkpt lat="51.227614225025" lon="4.446554447939">
        <ele>1</ele>
        <time>2020-06-25T19:58:13Z</time>
      </trkpt>
      <trkpt lat="51.228012029999" lon="4.445965870921">
        <ele>0.8</ele>
        <time>2020-06-25T19:58:30Z</time>
      </trkpt>
      <trkpt lat="51.228336996262" lon="4.445238573458">
        <ele>0.6</ele>
        <time>2020-06-25T19:58:49Z</time>
      </trkpt>
      <trkpt lat="51.228638744662" lon="4.444525860501">
        <ele>0.4</ele>
        <time>2020-06-25T19:59:08Z</time>
      </trkpt>
      <trkpt lat="51.229082482448" lon="4.443995537688">
        <ele>0</ele>
        <time>2020-06-25T19:59:26Z</time>
      </trkpt>
      <trkpt lat="51.229446256908" lon="4.443850698456">
        <ele>0</ele>
        <time>2020-06-25T19:59:38Z</time>
      </trkpt>
      <trkpt lat="51.22968748799" lon="4.4446365854">
        <ele>0</ele>
        <time>2020-06-25T19:59:58Z</time>
      </trkpt>
      <trkpt lat="51.229401497562" lon="4.445314429653">
        <ele>0</ele>
        <time>2020-06-25T20:00:22Z</time>
      </trkpt>
      <trkpt lat="51.228976870508" lon="4.445845339199">
        <ele>0</ele>
        <time>2020-06-25T20:00:43Z</time>
      </trkpt>
      <trkpt lat="51.228621394129" lon="4.446525614203">
        <ele>0</ele>
        <time>2020-06-25T20:01:02Z</time>
      </trkpt>
      <trkpt lat="51.228211100124" lon="4.447088123512">
        <ele>1.6</ele>
        <time>2020-06-25T20:01:22Z</time>
      </trkpt>
      <trkpt lat="51.22780575144" lon="4.447656164875">
        <ele>0</ele>
        <time>2020-06-25T20:01:43Z</time>
      </trkpt>
      <trkpt lat="51.227396127987" lon="4.448307941419">
        <ele>0</ele>
        <time>2020-06-25T20:02:03Z</time>
      </trkpt>
      <trkpt lat="51.227046518938" lon="4.44898595331">
        <ele>1.2</ele>
        <time>2020-06-25T20:02:22Z</time>
      </trkpt>
      <trkpt lat="51.227073508656" lon="4.449049739569">
        <ele>0</ele>
        <time>2020-06-25T20:02:25Z</time>
      </trkpt>
      <trkpt lat="51.227459830427" lon="4.448441297448">
        <ele>0</ele>
        <time>2020-06-25T20:02:44Z</time>
      </trkpt>
      <trkpt lat="51.22784011723" lon="4.447821958857">
        <ele>0.2</ele>
        <time>2020-06-25T20:03:01Z</time>
      </trkpt>
      <trkpt lat="51.22820221531" lon="4.447177558385">
        <ele>4.6</ele>
        <time>2020-06-25T20:03:22Z</time>
      </trkpt>
      <trkpt lat="51.22830447449" lon="4.44710589314">
        <ele>7.2</ele>
        <time>2020-06-25T20:03:28Z</time>
      </trkpt>
      <trkpt lat="51.2286808218" lon="4.447779127348">
        <ele>3.4</ele>
        <time>2020-06-25T20:03:48Z</time>
      </trkpt>
      <trkpt lat="51.228799425685" lon="4.447998062576">
        <ele>3.4</ele>
        <time>2020-06-25T20:03:56Z</time>
      </trkpt>
      <trkpt lat="51.229200331962" lon="4.448603319575">
        <ele>4.8</ele>
        <time>2020-06-25T20:04:18Z</time>
      </trkpt>
      <trkpt lat="51.229443323243" lon="4.44934637501">
        <ele>4.2</ele>
        <time>2020-06-25T20:04:41Z</time>
      </trkpt>
      <trkpt lat="51.229543403129" lon="4.450030924783">
        <ele>2.8</ele>
        <time>2020-06-25T20:05:00Z</time>
      </trkpt>
      <trkpt lat="51.229469390952" lon="4.449185610168">
        <ele>0</ele>
        <time>2020-06-25T20:05:20Z</time>
      </trkpt>
      <trkpt lat="51.229145011422" lon="4.448465856415">
        <ele>1</ele>
        <time>2020-06-25T20:05:37Z</time>
      </trkpt>
      <trkpt lat="51.228740500928" lon="4.448932141512">
        <ele>0.6</ele>
        <time>2020-06-25T20:05:55Z</time>
      </trkpt>
      <trkpt lat="51.22854335864" lon="4.449223747813">
        <ele>0</ele>
        <time>2020-06-25T20:06:05Z</time>
      </trkpt>
      <trkpt lat="51.228523493537" lon="4.449166918531">
        <ele>0</ele>
        <time>2020-06-25T20:06:08Z</time>
      </trkpt>
      <trkpt lat="51.228547968685" lon="4.449156022061">
        <ele>0</ele>
        <time>2020-06-25T20:06:10Z</time>
      </trkpt>
      <trkpt lat="51.228575293679" lon="4.449147640161">
        <ele>0</ele>
        <time>2020-06-25T20:06:12Z</time>
      </trkpt>
      <trkpt lat="51.228576802421" lon="4.449100198607">
        <ele>0</ele>
        <time>2020-06-25T20:06:15Z</time>
      </trkpt>
      <trkpt lat="51.228574706946" lon="4.44904378842">
        <ele>0</ele>
        <time>2020-06-25T20:06:17Z</time>
      </trkpt>
      <trkpt lat="51.228604965605" lon="4.449007327155">
        <ele>0</ele>
        <time>2020-06-25T20:06:19Z</time>
      </trkpt>
      <trkpt lat="51.228639079938" lon="4.449023420403">
        <ele>0</ele>
        <time>2020-06-25T20:06:21Z</time>
      </trkpt>
      <trkpt lat="51.228648467666" lon="4.449084272997">
        <ele>0</ele>
        <time>2020-06-25T20:06:23Z</time>
      </trkpt>
      <trkpt lat="51.22862717764" lon="4.449139090623">
        <ele>0</ele>
        <time>2020-06-25T20:06:25Z</time>
      </trkpt>
      <trkpt lat="51.228490887946" lon="4.44929524542">
        <ele>0</ele>
        <time>2020-06-25T20:06:39Z</time>
      </trkpt>
    </trkseg>
  </trk>
</gpx>